Time;durP1;ratioP1;P1;durP2;ratioP2;P2;SDS_P1;SDS_P2;PMS_P1;PMS_P2;Temp;Humidity;BMP_temperature;BMP_pressure;BME280_temperature;BME280_humidity;BME280_pressure;Samples;Min_cycle;Max_cycle;Signal;HPM_P1;HPM_P2
2022/01/16 00:05:06;;;;;;;18.27;17.17;;;4.50;81.10;;;;;;4996221;28;20057;-80
2022/01/16 00:07:32;;;;;;;16.83;16.00;;;4.50;81.80;;;;;;4982775;28;20423;-80
2022/01/16 00:09:58;;;;;;;17.23;16.23;;;4.50;81.10;;;;;;4987531;28;20038;-80
2022/01/16 00:12:24;;;;;;;17.20;16.30;;;4.50;81.10;;;;;;4992233;28;20467;-80
2022/01/16 00:14:51;;;;;;;16.87;16.07;;;4.50;81.00;;;;;;4992466;28;20402;-80
2022/01/16 00:17:19;;;;;;;16.30;15.50;;;4.50;81.10;;;;;;4977590;28;20050;-80
2022/01/16 00:19:45;;;;;;;19.30;17.67;;;4.50;81.10;;;;;;4986906;28;20479;-80
2022/01/16 00:22:14;;;;;;;18.77;17.63;;;4.50;81.10;;;;;;4994189;28;20061;-79
2022/01/16 00:24:40;;;;;;;18.53;17.27;;;4.50;81.10;;;;;;4988601;28;20039;-80
2022/01/16 00:27:07;;;;;;;17.23;16.20;;;4.50;81.10;;;;;;4991743;28;20033;-80
2022/01/16 00:29:33;;;;;;;17.27;16.37;;;4.50;81.10;;;;;;4978299;28;20368;-79
2022/01/16 00:31:59;;;;;;;17.87;16.97;;;4.50;81.10;;;;;;4976816;28;20494;-80
2022/01/16 00:34:26;;;;;;;18.17;16.83;;;4.50;81.10;;;;;;4991814;28;20031;-80
2022/01/16 00:36:52;;;;;;;17.30;16.47;;;4.50;81.10;;;;;;4993783;28;20038;-80
2022/01/16 00:39:18;;;;;;;16.50;15.70;;;4.50;81.10;;;;;;4992038;28;20033;-80
2022/01/16 00:41:44;;;;;;;16.67;15.87;;;4.50;81.10;;;;;;4993294;28;20391;-80
2022/01/16 00:44:10;;;;;;;16.70;15.90;;;4.50;81.10;;;;;;4987445;28;20027;-80
2022/01/16 00:46:36;;;;;;;17.87;16.73;;;4.60;81.10;;;;;;4992540;28;20038;-80
2022/01/16 00:49:02;;;;;;;16.90;16.00;;;4.60;81.10;;;;;;4992311;28;20030;-80
2022/01/16 00:51:28;;;;;;;17.33;16.50;;;4.60;81.10;;;;;;4993135;28;20038;-80
2022/01/16 00:53:55;;;;;;;16.87;15.97;;;4.60;81.10;;;;;;4990768;28;20031;-80
2022/01/16 00:56:21;;;;;;;17.80;16.77;;;4.60;81.10;;;;;;4991480;28;20053;-80
2022/01/16 00:58:47;;;;;;;16.97;16.17;;;4.60;81.20;;;;;;4979616;28;20030;-80
2022/01/16 01:01:14;;;;;;;16.47;15.67;;;4.60;81.10;;;;;;4990749;28;20035;-80
2022/01/16 01:03:40;;;;;;;16.93;16.03;;;4.60;81.10;;;;;;4988708;28;20376;-80
2022/01/16 01:06:06;;;;;;;16.67;15.87;;;4.60;81.20;;;;;;4979376;28;20034;-80
2022/01/16 01:08:33;;;;;;;17.30;16.30;;;4.60;81.10;;;;;;4993325;28;20049;-80
2022/01/16 01:11:01;;;;;;;17.70;16.80;;;4.60;81.10;;;;;;4991317;28;20026;-80
2022/01/16 01:16:02;;;;;;;16.73;15.93;;;4.60;81.20;;;;;;4993550;28;20053;-80
2022/01/16 01:18:33;;;;;;;16.43;15.67;;;4.60;81.20;;;;;;4989396;28;20058;-80
2022/01/16 01:21:02;;;;;;;18.08;16.88;;;4.60;81.10;;;;;;4993269;28;20022;-80
2022/01/16 01:23:28;;;;;;;17.20;16.13;;;4.60;81.10;;;;;;4992573;28;20053;-80
2022/01/16 01:25:55;;;;;;;16.60;15.80;;;4.60;81.20;;;;;;4984021;28;20038;-80
2022/01/16 01:28:21;;;;;;;16.40;15.60;;;4.60;81.20;;;;;;4972595;28;20039;-80
2022/01/16 01:30:47;;;;;;;18.23;17.03;;;4.60;81.20;;;;;;4990436;28;20423;-80
2022/01/16 01:33:14;;;;;;;17.50;16.60;;;4.60;81.30;;;;;;4992579;28;20030;-80
2022/01/16 01:35:41;;;;;;;16.50;15.60;;;4.60;81.20;;;;;;4992117;28;20042;-79
2022/01/16 01:38:08;;;;;;;18.23;17.03;;;4.60;81.30;;;;;;4986234;28;20039;-80
2022/01/16 01:40:34;;;;;;;17.20;16.13;;;4.70;81.30;;;;;;4985080;28;20022;-82
2022/01/16 01:51:07;;;;;;;16.00;15.13;;;4.70;81.30;;;;;;4991031;28;20049;-80
2022/01/16 01:53:33;;;;;;;16.80;16.00;;;4.70;81.20;;;;;;4979202;28;20037;-79
2022/01/16 01:55:59;;;;;;;17.10;16.20;;;4.70;81.20;;;;;;4991297;28;20051;-80
2022/01/16 01:58:25;;;;;;;15.93;15.13;;;4.70;81.20;;;;;;4987449;28;20058;-80
2022/01/16 02:00:51;;;;;;;17.03;16.23;;;4.70;81.20;;;;;;4986524;28;20061;-80
2022/01/16 02:05:49;;;;;;;16.23;15.43;;;4.60;81.20;;;;;;4995587;28;20045;-80
2022/01/16 02:08:15;;;;;;;16.83;16.03;;;4.60;81.20;;;;;;4990724;28;20034;-80
2022/01/16 02:10:41;;;;;;;16.43;15.53;;;4.70;81.30;;;;;;4974037;28;20410;-80
2022/01/16 02:13:11;;;;;;;16.13;15.33;;;4.60;81.30;;;;;;4982900;28;20476;-80
2022/01/16 02:31:59;;;;;;;16.60;15.80;;;4.60;81.20;;;;;;4990687;28;20514;-80
2022/01/16 02:34:38;;;;;;;16.92;16.02;;;4.60;81.30;;;;;;4989064;28;20633;-80
2022/01/16 02:37:08;;;;;;;16.80;16.00;;;4.60;81.30;;;;;;4991161;28;20049;-80
2022/01/16 02:39:37;;;;;;;18.50;17.30;;;4.60;81.30;;;;;;4984306;28;20383;-80
2022/01/16 02:42:04;;;;;;;22.07;18.50;;;4.60;81.30;;;;;;4991600;28;20399;-80
2022/01/16 02:44:51;;;;;;;20.07;18.37;;;4.60;81.30;;;;;;4992038;28;20029;-80
2022/01/16 02:47:18;;;;;;;16.20;15.50;;;4.50;81.40;;;;;;4980123;28;20042;-80
2022/01/16 02:49:47;;;;;;;17.30;16.33;;;4.50;81.40;;;;;;4981464;28;20022;-80
2022/01/16 02:52:18;;;;;;;16.67;15.87;;;4.40;81.30;;;;;;4985376;28;20050;-80
2022/01/16 02:54:47;;;;;;;16.83;16.02;;;4.50;81.50;;;;;;4990947;28;20030;-80
2022/01/16 02:57:17;;;;;;;16.40;15.57;;;4.40;81.50;;;;;;4989413;28;20034;-80
2022/01/16 02:59:53;;;;;;;17.23;16.25;;;4.40;81.50;;;;;;4976345;28;20026;-80
2022/01/16 03:02:20;;;;;;;15.43;14.73;;;4.40;81.50;;;;;;4990081;28;20046;-80
2022/01/16 03:04:46;;;;;;;16.77;15.90;;;4.40;81.50;;;;;;4988157;28;20033;-80
2022/01/16 03:07:12;;;;;;;18.57;17.30;;;4.40;81.40;;;;;;4978823;28;20022;-80
2022/01/16 03:12:26;;;;;;;16.73;15.83;;;4.40;81.50;;;;;;4951322;28;20428;-80
2022/01/16 03:14:52;;;;;;;16.93;15.90;;;4.30;81.50;;;;;;4948534;28;20048;-80
2022/01/16 03:21:52;;;;;;;16.67;15.87;;;4.30;81.50;;;;;;4951070;28;20055;-80
2022/01/16 03:22:56;;;;;;;16.47;15.70;;;4.30;81.50;;;;;;4911161;29;20067;-80
2022/01/16 03:25:23;;;;;;;17.40;16.60;;;4.30;81.50;;;;;;4895915;29;20028;-80
2022/01/16 03:27:49;;;;;;;16.30;15.50;;;4.20;81.50;;;;;;4913011;29;20055;-80
2022/01/16 03:30:15;;;;;;;17.40;16.50;;;4.20;81.60;;;;;;4912868;28;20044;-80
2022/01/16 03:32:41;;;;;;;15.80;15.10;;;4.20;81.70;;;;;;4897318;29;20063;-79
2022/01/16 03:35:07;;;;;;;15.73;15.03;;;4.10;81.70;;;;;;4914479;29;20409;-79
2022/01/16 03:37:33;;;;;;;15.93;15.13;;;4.10;81.70;;;;;;4913758;29;20048;-79
2022/01/16 03:40:00;;;;;;;16.17;15.37;;;4.20;81.70;;;;;;4913024;29;20497;-79
2022/01/16 03:42:29;;;;;;;16.50;15.57;;;4.20;81.80;;;;;;4914802;29;20051;-79
2022/01/16 03:44:55;;;;;;;15.03;14.33;;;4.20;82.50;;;;;;4900970;29;20408;-79
2022/01/16 03:47:22;;;;;;;15.47;14.67;;;4.20;81.60;;;;;;4914603;28;20064;-79
2022/01/16 03:49:48;;;;;;;16.70;15.90;;;4.20;81.60;;;;;;4909658;29;20480;-79
2022/01/16 03:52:14;;;;;;;14.60;13.90;;;4.20;81.60;;;;;;4934520;29;20195;-79
2022/01/16 03:54:40;;;;;;;15.67;14.97;;;4.20;81.50;;;;;;4933570;29;20533;-80
2022/01/16 03:57:06;;;;;;;15.87;15.17;;;4.20;81.60;;;;;;4934019;29;20047;-80
2022/01/16 03:59:33;;;;;;;15.10;14.40;;;4.20;82.40;;;;;;4948388;28;20042;-79
2022/01/16 04:02:00;;;;;;;16.30;15.50;;;4.20;81.70;;;;;;4985459;28;20487;-79
2022/01/16 04:04:26;;;;;;;16.17;15.40;;;4.20;81.60;;;;;;4993481;28;20038;-79
2022/01/16 04:06:52;;;;;;;16.93;16.03;;;4.20;81.60;;;;;;4988890;28;20134;-80
2022/01/16 04:09:18;;;;;;;16.57;15.77;;;4.10;81.60;;;;;;4984342;28;20038;-79
2022/01/16 04:11:51;;;;;;;15.77;15.07;;;4.10;81.60;;;;;;4977631;28;20029;-80
2022/01/16 04:14:23;;;;;;;17.07;16.17;;;4.10;81.70;;;;;;4978638;28;20022;-79
2022/01/16 04:16:51;;;;;;;16.50;15.70;;;4.10;81.70;;;;;;4990764;28;20045;-80
2022/01/16 04:19:18;;;;;;;16.43;15.63;;;4.10;81.70;;;;;;4992542;28;20718;-80
2022/01/16 04:21:44;;;;;;;16.03;15.23;;;4.10;81.70;;;;;;4986978;28;20039;-80
2022/01/16 04:24:10;;;;;;;16.23;15.43;;;4.10;81.60;;;;;;4990188;28;20479;-81
2022/01/16 04:26:36;;;;;;;17.30;16.37;;;4.00;81.50;;;;;;4990031;28;20030;-81
2022/01/16 04:29:02;;;;;;;16.03;15.33;;;4.00;81.60;;;;;;4976187;28;20026;-80
2022/01/16 04:31:29;;;;;;;15.43;14.73;;;4.00;81.70;;;;;;4992989;28;20483;-80
2022/01/16 04:33:55;;;;;;;17.00;16.10;;;4.00;81.70;;;;;;4989525;28;20372;-79
2022/01/16 04:36:21;;;;;;;16.77;15.53;;;4.00;81.60;;;;;;4983907;28;20037;-80
2022/01/16 04:38:49;;;;;;;15.90;15.20;;;4.00;81.60;;;;;;4993902;28;20034;-80
2022/01/16 04:44:00;;;;;;;16.43;15.67;;;4.00;81.60;;;;;;4996883;28;20414;-80
2022/01/16 04:46:27;;;;;;;15.83;15.03;;;3.90;81.60;;;;;;4983039;28;20050;-80
2022/01/16 04:48:54;;;;;;;16.60;15.80;;;3.80;81.50;;;;;;4988104;28;20030;-80
2022/01/16 04:51:20;;;;;;;17.40;16.60;;;3.80;81.60;;;;;;4993383;28;20506;-79
2022/01/16 04:53:46;;;;;;;17.20;16.30;;;3.80;81.70;;;;;;4976364;28;20041;-80
2022/01/16 04:56:13;;;;;;;18.33;16.60;;;3.70;81.80;;;;;;4993693;28;20030;-79
2022/01/16 04:58:39;;;;;;;16.97;16.13;;;3.70;82.60;;;;;;4981535;28;20051;-80
2022/01/16 05:01:06;;;;;;;16.80;15.80;;;3.70;81.80;;;;;;4989377;28;20045;-79
2022/01/16 05:03:32;;;;;;;15.13;14.43;;;3.70;81.90;;;;;;4985305;28;20030;-80
2022/01/16 05:05:58;;;;;;;16.10;15.30;;;3.70;81.80;;;;;;4993019;28;20514;-80
2022/01/16 05:08:24;;;;;;;14.90;14.20;;;3.70;81.90;;;;;;4992490;28;20391;-80
2022/01/16 05:10:55;;;;;;;15.73;14.93;;;3.70;81.80;;;;;;4987279;28;20033;-80
2022/01/16 05:18:34;;;;;;;16.43;15.57;;;3.80;81.70;;;;;;4991429;28;20042;-80
2022/01/16 05:21:00;;;;;;;15.50;14.80;;;3.80;81.70;;;;;;4990045;28;20027;-79
2022/01/16 05:23:26;;;;;;;15.43;14.73;;;3.80;81.70;;;;;;4974298;28;20813;-80
2022/01/16 05:25:52;;;;;;;15.47;14.57;;;3.80;81.70;;;;;;4979835;28;20475;-80
2022/01/16 05:28:18;;;;;;;14.77;14.07;;;3.80;81.70;;;;;;4986918;28;20045;-79
2022/01/16 05:30:44;;;;;;;13.70;13.10;;;3.90;81.60;;;;;;4986861;28;20045;-80
2022/01/16 05:33:10;;;;;;;15.13;14.43;;;3.90;81.60;;;;;;4992196;28;20053;-80
2022/01/16 05:35:36;;;;;;;15.27;14.40;;;3.90;81.60;;;;;;4977256;28;20030;-80
2022/01/16 05:38:03;;;;;;;15.70;14.87;;;4.00;81.60;;;;;;4992053;28;20038;-80
2022/01/16 05:40:29;;;;;;;15.30;14.60;;;4.00;81.60;;;;;;4988392;28;20026;-80
2022/01/16 05:42:55;;;;;;;15.23;14.53;;;4.00;81.60;;;;;;4981884;28;20427;-80
2022/01/16 05:45:22;;;;;;;15.27;14.50;;;4.00;81.60;;;;;;4979000;28;22248;-80
2022/01/16 05:47:48;;;;;;;16.37;15.57;;;4.00;81.60;;;;;;4991355;28;20042;-80
2022/01/16 05:50:14;;;;;;;17.20;16.40;;;4.00;81.50;;;;;;4989625;28;20045;-80
2022/01/16 05:52:41;;;;;;;15.80;15.10;;;3.90;81.60;;;;;;4962957;28;20042;-80
2022/01/16 05:55:07;;;;;;;16.50;15.60;;;3.90;81.60;;;;;;4983863;28;20042;-80
2022/01/16 05:57:33;;;;;;;15.77;15.07;;;3.80;81.50;;;;;;4986891;28;20034;-80
2022/01/16 05:59:59;;;;;;;15.13;14.43;;;3.80;81.60;;;;;;4988325;28;20385;-80
2022/01/16 06:02:26;;;;;;;15.53;14.73;;;3.80;81.70;;;;;;4990681;28;20043;-80
2022/01/16 06:04:52;;;;;;;15.27;14.57;;;3.80;81.70;;;;;;4978759;28;20043;-80
2022/01/16 06:07:19;;;;;;;15.50;14.80;;;3.90;81.80;;;;;;4985198;28;20399;-80
2022/01/16 06:09:45;;;;;;;15.63;14.93;;;3.90;81.70;;;;;;4986970;28;20418;-80
2022/01/16 06:12:11;;;;;;;16.03;15.33;;;3.90;81.60;;;;;;4983031;28;20030;-80
2022/01/16 06:14:37;;;;;;;15.20;14.50;;;3.80;81.50;;;;;;4975951;28;20035;-80
2022/01/16 06:17:04;;;;;;;15.20;14.50;;;3.80;81.60;;;;;;4987217;28;20030;-80
2022/01/16 06:19:30;;;;;;;14.43;13.73;;;3.80;81.70;;;;;;4978729;28;20039;-81
2022/01/16 06:21:56;;;;;;;14.77;14.07;;;3.80;81.80;;;;;;4979922;28;20042;-81
2022/01/16 06:24:22;;;;;;;15.83;15.03;;;3.80;81.70;;;;;;4978700;28;20030;-81
2022/01/16 06:26:51;;;;;;;14.83;14.13;;;3.80;81.70;;;;;;4979108;28;20046;-81
2022/01/16 06:29:17;;;;;;;15.30;14.60;;;3.90;81.70;;;;;;4977581;28;20027;-81
2022/01/16 06:31:44;;;;;;;15.60;14.90;;;3.90;81.60;;;;;;4973641;28;20019;-81
2022/01/16 06:34:10;;;;;;;15.27;14.57;;;3.90;81.60;;;;;;4980692;28;20049;-82
2022/01/16 06:36:36;;;;;;;14.90;14.20;;;3.90;81.60;;;;;;4983539;28;20027;-83
2022/01/16 06:39:10;;;;;;;15.10;14.40;;;3.90;81.60;;;;;;4981113;28;20046;-83
2022/01/16 06:41:36;;;;;;;14.93;14.23;;;3.90;81.60;;;;;;4972349;28;20034;-83
2022/01/16 06:44:03;;;;;;;14.90;14.20;;;3.90;81.60;;;;;;4990943;28;20042;-83
2022/01/16 06:46:29;;;;;;;16.43;15.40;;;4.00;81.60;;;;;;4983175;28;20038;-82
2022/01/16 06:48:55;;;;;;;15.77;14.97;;;3.90;81.60;;;;;;4986628;28;20038;-82
2022/01/16 06:51:21;;;;;;;14.53;13.83;;;4.00;81.60;;;;;;4992232;28;20364;-82
2022/01/16 06:53:47;;;;;;;15.83;15.13;;;4.00;81.60;;;;;;4980639;28;20038;-82
2022/01/16 06:56:14;;;;;;;15.43;14.73;;;4.00;81.60;;;;;;4992074;28;20027;-82
2022/01/16 06:58:40;;;;;;;15.30;14.60;;;4.00;81.60;;;;;;4991314;28;20050;-83
2022/01/16 07:01:06;;;;;;;14.80;14.10;;;4.00;81.60;;;;;;4990535;28;20045;-82
2022/01/16 07:03:32;;;;;;;15.13;14.43;;;4.00;81.60;;;;;;4991239;28;20042;-82
2022/01/16 07:06:00;;;;;;;16.37;15.47;;;4.00;81.60;;;;;;4981942;28;20388;-82
2022/01/16 07:08:27;;;;;;;16.00;14.97;;;4.00;81.60;;;;;;4979929;28;20399;-82
2022/01/16 07:10:54;;;;;;;15.13;14.43;;;4.00;81.60;;;;;;4990380;28;20403;-81
2022/01/16 07:13:21;;;;;;;15.27;14.57;;;4.00;81.60;;;;;;4991016;28;20487;-82
2022/01/16 07:15:48;;;;;;;15.40;14.70;;;4.00;81.60;;;;;;4989289;28;20049;-82
2022/01/16 07:18:14;;;;;;;15.77;15.03;;;4.00;81.60;;;;;;4990668;28;20046;-83
2022/01/16 07:20:41;;;;;;;14.60;13.90;;;4.00;81.60;;;;;;4993466;28;20035;-82
2022/01/16 07:23:07;;;;;;;15.77;14.73;;;4.00;81.60;;;;;;4978850;28;20058;-83
2022/01/16 07:25:33;;;;;;;17.77;16.57;;;4.00;81.70;;;;;;5005086;28;20027;-83
2022/01/16 07:27:59;;;;;;;15.30;14.60;;;4.10;81.70;;;;;;4982006;28;20043;-84
2022/01/16 07:30:25;;;;;;;17.33;15.93;;;4.10;81.70;;;;;;4992277;28;20034;-82
2022/01/16 07:32:51;;;;;;;15.40;14.70;;;4.00;81.70;;;;;;4993040;28;20468;-83
2022/01/16 07:35:17;;;;;;;16.53;15.70;;;4.10;81.70;;;;;;4997611;28;20041;-82
2022/01/16 07:37:43;;;;;;;15.03;14.33;;;4.00;81.60;;;;;;4983788;28;20035;-83
2022/01/16 07:40:10;;;;;;;16.67;15.83;;;4.00;81.60;;;;;;4991176;28;20041;-82
2022/01/16 07:42:36;;;;;;;15.23;14.53;;;4.10;81.70;;;;;;4993322;28;20045;-85
2022/01/16 07:45:03;;;;;;;15.63;14.90;;;4.10;81.70;;;;;;4992480;28;20381;-85
2022/01/16 07:47:29;;;;;;;16.37;15.17;;;4.10;81.70;;;;;;4993670;28;20383;-86
2022/01/16 07:49:55;;;;;;;14.90;14.20;;;4.10;81.70;;;;;;5010577;28;20356;-83
2022/01/16 07:52:21;;;;;;;16.17;15.07;;;4.00;81.60;;;;;;4988879;28;20027;-84
2022/01/16 07:54:48;;;;;;;16.43;15.53;;;4.10;81.70;;;;;;4989285;28;20057;-81
2022/01/16 07:57:14;;;;;;;14.27;13.57;;;4.00;81.60;;;;;;4993091;28;20037;-82
2022/01/16 07:59:40;;;;;;;16.43;15.60;;;4.00;81.60;;;;;;4985536;28;20038;-81
2022/01/16 08:02:06;;;;;;;16.83;15.90;;;4.00;81.60;;;;;;4994986;28;20038;-81
2022/01/16 08:04:32;;;;;;;16.03;15.13;;;4.00;81.70;;;;;;4993415;28;20061;-82
2022/01/16 08:06:58;;;;;;;17.03;15.73;;;4.00;81.70;;;;;;4994394;28;20026;-83
2022/01/16 08:09:24;;;;;;;15.43;14.73;;;4.00;81.70;;;;;;4986426;28;20023;-83
2022/01/16 08:11:51;;;;;;;14.90;14.20;;;4.00;81.70;;;;;;4994424;28;20041;-84
2022/01/16 08:14:17;;;;;;;15.13;14.33;;;4.10;82.50;;;;;;4991955;28;20026;-84
2022/01/16 08:16:43;;;;;;;15.20;14.50;;;4.10;81.70;;;;;;4992864;28;20499;-84
2022/01/16 08:19:09;;;;;;;15.33;14.63;;;4.10;81.70;;;;;;4987466;28;20046;-83
2022/01/16 08:21:35;;;;;;;16.00;15.17;;;4.10;81.70;;;;;;4987576;28;20550;-83
2022/01/16 08:24:03;;;;;;;16.83;15.47;;;4.10;81.70;;;;;;5006304;28;20061;-83
2022/01/16 08:26:31;;;;;;;18.13;16.43;;;4.10;81.70;;;;;;4992262;28;20046;-83
2022/01/16 08:28:57;;;;;;;15.57;14.77;;;4.10;81.70;;;;;;4990655;28;20038;-83
2022/01/16 08:31:24;;;;;;;16.07;15.07;;;4.20;81.80;;;;;;4988127;28;20551;-84
2022/01/16 08:33:50;;;;;;;14.70;14.00;;;4.20;81.80;;;;;;4987864;28;20542;-82
2022/01/16 08:36:16;;;;;;;15.60;14.90;;;4.20;81.80;;;;;;4992794;28;20026;-82
2022/01/16 08:38:43;;;;;;;15.47;14.77;;;4.30;81.80;;;;;;4977730;28;20046;-83
2022/01/16 08:41:09;;;;;;;15.83;15.00;;;4.30;81.80;;;;;;4992304;28;20042;-82
2022/01/16 08:43:35;;;;;;;17.33;16.10;;;4.30;81.70;;;;;;4982283;28;20043;-83
2022/01/16 08:46:01;;;;;;;16.67;15.67;;;4.30;81.60;;;;;;4988469;28;20045;-84
2022/01/16 08:48:27;;;;;;;16.40;15.60;;;4.30;81.60;;;;;;4966907;28;20495;-84
2022/01/16 08:50:54;;;;;;;16.03;15.27;;;4.30;81.60;;;;;;4990812;28;20037;-84
2022/01/16 08:53:20;;;;;;;15.90;15.17;;;4.30;81.60;;;;;;4990157;28;20042;-84
2022/01/16 08:55:46;;;;;;;16.60;15.73;;;4.40;81.70;;;;;;4989586;28;20495;-84
2022/01/16 08:58:12;;;;;;;16.37;15.57;;;4.40;81.70;;;;;;4973649;28;20045;-86
2022/01/16 09:00:38;;;;;;;17.20;16.23;;;4.40;81.60;;;;;;4987354;28;20475;-85
2022/01/16 09:03:04;;;;;;;17.33;16.43;;;4.40;81.70;;;;;;4988483;28;20033;-82
2022/01/16 09:05:30;;;;;;;15.43;14.70;;;4.40;81.70;;;;;;4993894;28;20043;-83
2022/01/16 09:07:56;;;;;;;17.43;16.43;;;4.40;81.70;;;;;;4984866;28;20391;-82
2022/01/16 09:10:23;;;;;;;17.33;16.43;;;4.30;81.70;;;;;;4981520;28;20041;-84
2022/01/16 09:12:49;;;;;;;16.23;15.33;;;4.40;81.80;;;;;;4963530;28;20383;-85
2022/01/16 09:15:15;;;;;;;15.80;15.00;;;4.40;81.80;;;;;;4982763;28;20041;-84
2022/01/16 09:17:41;;;;;;;17.57;16.47;;;4.40;81.80;;;;;;4974300;28;20034;-83
2022/01/16 09:20:08;;;;;;;16.67;15.87;;;4.40;81.70;;;;;;4984087;28;20054;-84
2022/01/16 09:22:36;;;;;;;16.53;15.73;;;4.40;81.60;;;;;;5006954;28;20412;-85
2022/01/16 09:25:04;;;;;;;16.60;15.70;;;4.50;81.70;;;;;;4978968;28;20031;-84
2022/01/16 09:27:31;;;;;;;16.97;16.07;;;4.50;81.70;;;;;;4982904;28;20046;-84
2022/01/16 09:29:57;;;;;;;14.90;14.20;;;4.40;81.60;;;;;;4990016;28;20807;-84
2022/01/16 09:32:24;;;;;;;15.73;15.03;;;4.40;81.60;;;;;;4975934;28;20046;-84
2022/01/16 09:34:50;;;;;;;17.03;15.57;;;4.40;81.70;;;;;;4990143;28;20391;-82
2022/01/16 09:37:16;;;;;;;15.70;14.90;;;4.40;81.70;;;;;;4980577;28;20034;-83
2022/01/16 09:39:42;;;;;;;16.00;15.13;;;4.40;81.70;;;;;;4962510;28;20101;-83
2022/01/16 09:42:08;;;;;;;15.57;14.87;;;4.40;81.70;;;;;;4992021;28;20034;-84
2022/01/16 09:44:37;;;;;;;15.23;14.53;;;4.40;81.70;;;;;;4985507;28;20050;-84
2022/01/16 09:47:03;;;;;;;14.23;13.53;;;4.40;81.80;;;;;;4981168;28;20031;-85
2022/01/16 09:49:29;;;;;;;15.37;14.67;;;4.40;81.80;;;;;;4972170;28;20042;-81
2022/01/16 09:51:55;;;;;;;16.93;15.80;;;4.40;81.80;;;;;;4987403;28;20286;-82
2022/01/16 09:54:21;;;;;;;16.20;15.40;;;4.40;81.90;;;;;;4978156;28;20026;-85
2022/01/16 09:56:48;;;;;;;16.03;15.23;;;4.40;81.90;;;;;;4990135;28;20368;-82
2022/01/16 09:59:14;;;;;;;16.63;15.63;;;4.40;81.90;;;;;;4985789;28;20049;-81
2022/01/16 10:01:40;;;;;;;15.93;15.13;;;4.40;81.90;;;;;;4985049;28;20027;-82
2022/01/16 10:04:35;;;;;;;16.10;15.30;;;4.40;81.90;;;;;;4986882;28;20031;-82
2022/01/16 10:07:07;;;;;;;15.83;15.10;;;4.40;81.90;;;;;;4994819;28;20411;-81
2022/01/16 10:09:37;;;;;;;17.33;16.43;;;4.40;81.90;;;;;;4986637;28;20480;-82
2022/01/16 10:12:13;;;;;;;14.80;14.10;;;4.40;81.80;;;;;;4989344;28;20030;-82
2022/01/16 10:14:46;;;;;;;15.17;14.40;;;4.40;81.70;;;;;;4989976;28;20046;-82
2022/01/16 10:17:14;;;;;;;16.70;15.80;;;4.40;81.70;;;;;;4977317;28;20034;-81
2022/01/16 10:19:40;;;;;;;17.17;16.27;;;4.50;81.80;;;;;;4990262;28;20058;-83
2022/01/16 10:22:09;;;;;;;16.47;15.57;;;4.50;81.70;;;;;;4981717;28;20042;-81
2022/01/16 10:24:36;;;;;;;15.47;14.77;;;4.50;81.60;;;;;;4989356;28;20053;-82
2022/01/16 10:27:08;;;;;;;17.43;16.23;;;4.50;81.60;;;;;;4974412;28;20058;-82
2022/01/16 10:29:43;;;;;;;17.00;16.10;;;4.60;81.70;;;;;;4989005;28;20042;-81
2022/01/16 10:32:16;;;;;;;15.80;15.10;;;4.60;81.70;;;;;;4983295;28;20039;-82
2022/01/16 10:34:43;;;;;;;17.17;16.27;;;4.60;81.60;;;;;;4991556;28;20039;-82
2022/01/16 10:37:22;;;;;;;17.00;16.20;;;4.60;81.60;;;;;;4968781;28;20030;-81
2022/01/16 10:40:01;;;;;;;17.20;16.33;;;4.60;81.60;;;;;;4984565;28;20416;-82
2022/01/16 10:42:29;;;;;;;16.83;15.90;;;4.70;81.60;;;;;;4991046;28;20022;-81
2022/01/16 10:45:02;;;;;;;17.37;16.37;;;4.80;81.60;;;;;;4981483;28;20483;-82
2022/01/16 10:47:53;;;;;;;17.17;16.17;;;4.80;81.50;;;;;;4989635;28;20042;-83
2022/01/16 10:50:33;;;;;;;16.77;15.95;;;4.80;81.50;;;;;;4990103;28;20041;-84
2022/01/16 10:53:01;;;;;;;17.90;17.00;;;4.80;81.40;;;;;;4987325;28;20046;-84
2022/01/16 10:55:49;;;;;;;17.67;16.77;;;4.90;81.50;;;;;;4978177;28;20027;-82
2022/01/16 10:58:18;;;;;;;18.13;17.10;;;4.90;81.40;;;;;;4978688;28;20054;-82
2022/01/16 11:01:09;;;;;;;16.83;16.03;;;5.00;81.40;;;;;;4985623;28;20042;-82
2022/01/16 11:03:47;;;;;;;16.57;15.67;;;5.00;81.40;;;;;;4980144;28;20039;-83
2022/01/16 11:06:18;;;;;;;16.80;15.90;;;5.10;81.30;;;;;;4979350;28;20498;-83
2022/01/16 11:08:56;;;;;;;16.97;16.10;;;5.10;81.30;;;;;;4979004;28;20031;-84
2022/01/16 11:11:26;;;;;;;17.07;16.27;;;5.20;81.30;;;;;;4991484;28;20041;-83
2022/01/16 11:13:54;;;;;;;16.83;16.03;;;5.20;81.30;;;;;;4992197;28;20041;-86
2022/01/16 11:16:20;;;;;;;17.43;16.43;;;5.30;81.30;;;;;;4989263;28;20061;-83
2022/01/16 11:18:51;;;;;;;16.13;15.43;;;5.30;81.20;;;;;;4982966;28;20035;-83
2022/01/16 11:21:31;;;;;;;16.20;15.18;;;5.30;81.20;;;;;;4979714;28;20023;-83
2022/01/16 11:24:22;;;;;;;17.67;16.77;;;5.30;81.20;;;;;;4994181;28;20046;-82
2022/01/16 11:26:47;;;;;;;16.87;16.07;;;5.40;81.90;;;;;;4983113;28;20361;-82
2022/01/16 11:29:13;;;;;;;16.10;15.40;;;5.40;81.10;;;;;;4990834;28;20034;-81
2022/01/16 11:31:43;;;;;;;17.47;16.47;;;5.50;81.20;;;;;;4994303;28;20034;-82
2022/01/16 11:34:10;;;;;;;17.50;16.60;;;5.50;81.20;;;;;;4988119;28;20472;-81
2022/01/16 11:36:36;;;;;;;18.07;16.93;;;5.50;81.20;;;;;;5008234;28;20034;-81
2022/01/16 11:39:06;;;;;;;17.60;16.63;;;5.60;81.20;;;;;;4991731;28;20509;-81
2022/01/16 11:41:39;;;;;;;18.00;16.87;;;5.60;81.20;;;;;;4982908;28;20336;-82
2022/01/16 11:44:07;;;;;;;16.23;15.43;;;5.70;81.20;;;;;;5003947;28;20042;-82
2022/01/16 11:46:34;;;;;;;16.27;15.47;;;5.70;81.20;;;;;;4988924;28;20402;-82
2022/01/16 11:49:01;;;;;;;17.50;16.60;;;5.80;81.20;;;;;;4984173;28;20392;-83
2022/01/16 11:51:37;;;;;;;16.47;15.67;;;5.80;81.10;;;;;;4985991;28;20059;-83
2022/01/16 11:54:04;;;;;;;16.27;15.47;;;5.90;81.10;;;;;;4994815;28;20033;-83
2022/01/16 11:56:40;;;;;;;17.80;16.70;;;5.90;81.10;;;;;;4988552;28;20045;-83
2022/01/16 11:59:12;;;;;;;18.53;17.43;;;5.90;81.10;;;;;;4989912;28;20411;-83
2022/01/16 12:01:48;;;;;;;17.00;16.10;;;6.00;81.10;;;;;;4991351;28;20034;-83
2022/01/16 12:04:30;;;;;;;16.47;15.57;;;6.00;81.10;;;;;;4988012;28;20026;-85
2022/01/16 12:06:59;;;;;;;15.60;14.90;;;6.00;81.00;;;;;;4993888;28;20034;-84
2022/01/16 12:09:35;;;;;;;17.23;16.27;;;6.10;81.10;;;;;;4989269;28;20031;-83
2022/01/16 12:12:02;;;;;;;17.20;15.97;;;6.10;81.10;;;;;;4987229;28;20387;-84
2022/01/16 12:14:47;;;;;;;17.80;16.80;;;6.10;81.10;;;;;;4998236;28;20050;-83
2022/01/16 12:17:29;;;;;;;17.47;16.57;;;6.10;81.10;;;;;;4983410;28;20038;-83
2022/01/16 12:19:56;;;;;;;17.03;16.17;;;6.10;81.10;;;;;;4978522;28;20050;-84
2022/01/16 12:22:46;;;;;;;16.60;15.80;;;6.20;81.10;;;;;;4989519;28;20037;-84
2022/01/16 12:25:21;;;;;;;17.17;15.97;;;6.20;81.20;;;;;;4981516;28;20046;-84
2022/01/16 12:27:49;;;;;;;16.33;15.33;;;6.20;81.10;;;;;;4993922;28;20030;-84
2022/01/16 12:30:16;;;;;;;16.63;15.73;;;6.20;81.10;;;;;;4970369;28;20026;-83
2022/01/16 12:32:51;;;;;;;16.33;15.30;;;6.20;81.10;;;;;;4977718;28;20045;-85
2022/01/16 12:35:58;;;;;;;17.77;16.73;;;6.30;81.20;;;;;;4992042;28;20034;-85
2022/01/16 12:38:25;;;;;;;18.13;17.13;;;6.30;81.20;;;;;;4935387;28;20043;-83
2022/01/16 12:41:07;;;;;;;18.20;16.83;;;6.30;81.20;;;;;;4936872;29;20063;-83
2022/01/16 12:43:44;;;;;;;16.77;15.90;;;6.30;81.20;;;;;;4955442;28;20042;-83
2022/01/16 12:46:19;;;;;;;16.57;15.77;;;6.30;81.20;;;;;;4917190;28;20042;-83
2022/01/16 12:48:47;;;;;;;17.93;17.03;;;6.30;81.10;;;;;;4946044;28;20032;-83
2022/01/16 12:51:15;;;;;;;18.23;17.23;;;6.30;81.20;;;;;;4953006;28;20452;-83
2022/01/16 12:53:42;;;;;;;18.00;16.90;;;6.30;81.30;;;;;;4952375;28;20051;-83
2022/01/16 12:56:16;;;;;;;17.23;16.40;;;6.30;81.30;;;;;;4932801;28;20035;-82
2022/01/16 12:58:42;;;;;;;17.57;16.40;;;6.40;81.40;;;;;;4935515;29;20527;-83
2022/01/16 13:01:08;;;;;;;16.63;15.83;;;6.40;81.30;;;;;;4950104;28;20095;-83
2022/01/16 13:03:35;;;;;;;18.10;17.07;;;6.50;81.30;;;;;;4952602;28;20027;-83
2022/01/16 13:06:19;;;;;;;18.13;16.70;;;6.50;81.30;;;;;;4937559;29;20214;-82
2022/01/16 13:08:59;;;;;;;17.03;16.23;;;6.60;81.20;;;;;;4947246;28;20031;-82
2022/01/16 13:11:27;;;;;;;17.97;17.07;;;6.60;81.10;;;;;;4929261;28;20036;-83
2022/01/16 13:13:53;;;;;;;17.07;16.20;;;6.70;81.10;;;;;;4992742;28;20030;-83
2022/01/16 13:16:25;;;;;;;16.83;16.03;;;6.70;81.10;;;;;;4988215;28;20053;-83
2022/01/16 13:19:00;;;;;;;17.40;16.50;;;6.80;81.10;;;;;;4991753;28;20038;-83
2022/01/16 13:21:33;;;;;;;18.17;17.27;;;6.80;81.10;;;;;;4990155;28;20031;-82
2022/01/16 13:24:00;;;;;;;17.77;16.87;;;6.80;81.10;;;;;;4988154;28;20049;-83
2022/01/16 13:26:26;;;;;;;17.63;16.73;;;6.80;81.10;;;;;;4992552;28;20035;-84
2022/01/16 13:29:20;;;;;;;17.43;16.53;;;6.80;81.10;;;;;;4991441;28;20038;-84